Time;durP1;ratioP1;P1;durP2;ratioP2;P2;SDS_P1;SDS_P2;PMS_P1;PMS_P2;Temp;Humidity;BMP_temperature;BMP_pressure;BME280_temperature;BME280_humidity;BME280_pressure;Samples;Min_cycle;Max_cycle;Signal;HPM_P1;HPM_P2
2021/06/28 00:00:08;;;;;;;2.80;2.00;;;;;;;;;;4944619;29;20056;-77
2021/06/28 00:02:34;;;;;;;3.45;2.25;;;;;;;;;;4929536;28;20043;-76
2021/06/28 00:05:00;;;;;;;2.97;2.10;;;;;;;;;;4943335;28;20067;-77
2021/06/28 00:07:27;;;;;;;3.00;2.08;;;;;;;;;;4929112;29;20071;-77
2021/06/28 00:09:53;;;;;;;4.05;2.45;;;;;;;;;;4942642;28;20407;-77
2021/06/28 00:12:20;;;;;;;2.70;1.88;;;;;;;;;;4926283;28;20039;-77
2021/06/28 00:14:46;;;;;;;3.78;2.20;;;;;;;;;;4933533;28;20070;-77
2021/06/28 00:17:12;;;;;;;3.42;2.20;;;;;;;;;;4923624;28;20623;-78
2021/06/28 00:19:39;;;;;;;3.33;2.20;;;;;;;;;;4928572;29;20063;-77
2021/06/28 00:22:05;;;;;;;2.45;1.90;;;;;;;;;;4945755;28;20102;-77
2021/06/28 00:24:32;;;;;;;2.60;2.13;;;;;;;;;;4928587;28;20043;-77
2021/06/28 00:26:58;;;;;;;2.75;2.15;;;;;;;;;;4930889;28;20496;-77
2021/06/28 00:29:24;;;;;;;4.70;2.08;;;;;;;;;;4942455;28;20066;-77
2021/06/28 00:31:54;;;;;;;4.75;2.30;;;;;;;;;;4944244;29;20066;-77
2021/06/28 00:34:20;;;;;;;3.08;1.92;;;;;;;;;;4930592;28;20040;-77
2021/06/28 00:36:46;;;;;;;2.40;2.00;;;;;;;;;;4936111;28;20508;-78
2021/06/28 00:39:13;;;;;;;3.88;2.30;;;;;;;;;;4929814;28;20063;-77
2021/06/28 00:41:39;;;;;;;3.90;2.65;;;;;;;;;;4933925;29;20062;-77
2021/06/28 00:44:06;;;;;;;6.63;2.35;;;;;;;;;;4911607;29;20071;-77
2021/06/28 00:46:32;;;;;;;4.93;2.17;;;;;;;;;;4927834;28;20126;-77
2021/06/28 00:48:59;;;;;;;3.50;2.40;;;;;;;;;;4944229;29;20142;-78
2021/06/28 00:51:25;;;;;;;3.67;2.35;;;;;;;;;;4927276;28;20122;-77
2021/06/28 00:53:52;;;;;;;2.80;2.22;;;;;;;;;;4926456;29;20071;-77
2021/06/28 00:56:18;;;;;;;2.72;2.20;;;;;;;;;;4928891;28;20691;-78
2021/06/28 00:58:48;;;;;;;3.55;2.28;;;;;;;;;;4939956;28;20473;-76
2021/06/28 01:01:15;;;;;;;4.40;2.28;;;;;;;;;;4928894;28;20115;-78
2021/06/28 01:03:42;;;;;;;4.45;2.15;;;;;;;;;;4930017;28;20036;-76
2021/06/28 01:06:14;;;;;;;2.60;2.17;;;;;;;;;;4928029;28;20056;-77
2021/06/28 01:08:40;;;;;;;2.75;2.22;;;;;;;;;;4926719;29;22163;-77
2021/06/28 01:11:07;;;;;;;4.88;2.47;;;;;;;;;;4945663;28;20162;-77
2021/06/28 01:13:36;;;;;;;3.92;2.45;;;;;;;;;;4944051;28;20063;-77
2021/06/28 01:16:03;;;;;;;4.03;2.17;;;;;;;;;;4931117;28;20059;-77
2021/06/28 01:18:30;;;;;;;3.17;2.50;;;;;;;;;;4929976;28;20091;-78
2021/06/28 01:20:57;;;;;;;3.78;2.50;;;;;;;;;;4928911;29;20068;-77
2021/06/28 01:23:25;;;;;;;3.63;2.20;;;;;;;;;;4925031;28;20063;-77
2021/06/28 01:26:02;;;;;;;3.25;2.65;;;;;;;;;;4928769;28;20070;-78
2021/06/28 01:28:29;;;;;;;2.90;2.20;;;;;;;;;;4949019;28;20032;-81
2021/06/28 01:30:59;;;;;;;3.22;2.40;;;;;;;;;;4929702;28;20063;-77
2021/06/28 01:33:26;;;;;;;3.30;2.20;;;;;;;;;;4929922;28;20127;-78
2021/06/28 01:35:52;;;;;;;4.28;2.33;;;;;;;;;;4932547;28;20055;-78
2021/06/28 01:38:19;;;;;;;3.55;2.70;;;;;;;;;;4933066;28;20061;-77
2021/06/28 01:40:46;;;;;;;2.80;2.20;;;;;;;;;;4927904;28;20058;-77
2021/06/28 01:43:12;;;;;;;3.10;2.42;;;;;;;;;;4943686;28;20036;-77
2021/06/28 01:45:39;;;;;;;4.03;2.58;;;;;;;;;;4932238;28;21196;-77
2021/06/28 01:48:06;;;;;;;3.20;2.53;;;;;;;;;;4933369;28;20091;-77
2021/06/28 01:50:34;;;;;;;3.25;2.53;;;;;;;;;;4930727;28;20067;-77
2021/06/28 01:53:01;;;;;;;3.55;2.40;;;;;;;;;;4934174;29;20507;-77
2021/06/28 01:55:28;;;;;;;4.57;2.50;;;;;;;;;;4924286;28;20122;-77
2021/06/28 01:57:59;;;;;;;4.70;2.90;;;;;;;;;;4931786;28;20060;-78
2021/06/28 02:00:27;;;;;;;4.50;2.92;;;;;;;;;;4931632;28;20114;-77
2021/06/28 02:02:56;;;;;;;4.22;2.90;;;;;;;;;;4932167;28;20067;-77
2021/06/28 02:05:23;;;;;;;4.20;2.85;;;;;;;;;;4932532;28;20200;-78
2021/06/28 02:07:49;;;;;;;4.20;3.05;;;;;;;;;;4925871;28;20051;-77
2021/06/28 02:10:16;;;;;;;4.13;2.60;;;;;;;;;;4932481;28;20110;-78
2021/06/28 02:12:42;;;;;;;3.97;2.70;;;;;;;;;;4930598;28;20114;-78
2021/06/28 02:15:16;;;;;;;4.78;3.15;;;;;;;;;;4931624;28;20146;-76
2021/06/28 02:17:42;;;;;;;4.80;3.05;;;;;;;;;;4931004;28;21311;-77
2021/06/28 02:20:09;;;;;;;4.03;3.30;;;;;;;;;;4933063;28;20035;-77
2021/06/28 02:22:37;;;;;;;3.95;2.90;;;;;;;;;;4926550;28;20095;-77
2021/06/28 02:25:05;;;;;;;5.30;3.20;;;;;;;;;;4932220;28;20059;-76
2021/06/28 02:27:31;;;;;;;4.07;2.90;;;;;;;;;;4929540;28;20081;-77
2021/06/28 02:29:57;;;;;;;3.75;2.80;;;;;;;;;;4933794;28;20110;-77
2021/06/28 02:32:24;;;;;;;3.75;2.63;;;;;;;;;;4932973;28;20527;-77
2021/06/28 02:34:50;;;;;;;4.13;2.88;;;;;;;;;;4929100;28;20067;-77
2021/06/28 02:37:17;;;;;;;4.22;2.78;;;;;;;;;;4931778;28;20075;-77
2021/06/28 02:39:43;;;;;;;3.95;2.85;;;;;;;;;;4933339;29;20052;-76
2021/06/28 02:42:10;;;;;;;4.57;3.47;;;;;;;;;;4939667;28;20492;-76
2021/06/28 02:44:36;;;;;;;7.63;3.20;;;;;;;;;;4926853;28;20078;-77
2021/06/28 02:47:03;;;;;;;3.97;2.90;;;;;;;;;;4928688;29;20024;-78
2021/06/28 02:49:29;;;;;;;3.83;2.90;;;;;;;;;;4930996;28;20066;-78
2021/06/28 02:51:55;;;;;;;3.47;2.95;;;;;;;;;;4930447;28;20091;-78
2021/06/28 02:54:22;;;;;;;5.07;2.67;;;;;;;;;;4920744;28;20459;-77
2021/06/28 02:56:48;;;;;;;4.45;3.15;;;;;;;;;;4924579;29;20099;-78
2021/06/28 02:59:15;;;;;;;3.85;3.17;;;;;;;;;;4930566;28;20055;-77
2021/06/28 03:01:41;;;;;;;3.83;2.75;;;;;;;;;;4930588;29;20070;-78
2021/06/28 03:04:08;;;;;;;6.68;2.85;;;;;;;;;;4930798;28;20516;-79
2021/06/28 03:06:34;;;;;;;3.92;2.95;;;;;;;;;;4924226;28;20582;-78
2021/06/28 03:09:00;;;;;;;6.32;3.05;;;;;;;;;;4931777;28;20082;-77
2021/06/28 03:11:27;;;;;;;4.57;2.85;;;;;;;;;;4923996;28;20071;-78
2021/06/28 03:13:54;;;;;;;4.95;3.10;;;;;;;;;;4926272;29;20067;-77
2021/06/28 03:16:20;;;;;;;4.47;2.95;;;;;;;;;;4928734;28;20055;-77
2021/06/28 03:18:47;;;;;;;4.03;2.90;;;;;;;;;;4932614;28;20074;-77
2021/06/28 03:21:13;;;;;;;5.50;2.75;;;;;;;;;;4929973;29;20079;-79
2021/06/28 03:23:41;;;;;;;4.40;3.03;;;;;;;;;;4935145;28;20415;-77
2021/06/28 03:26:08;;;;;;;6.13;2.85;;;;;;;;;;4930587;29;20051;-78
2021/06/28 03:28:35;;;;;;;3.63;2.78;;;;;;;;;;4929943;29;20054;-78
2021/06/28 03:31:02;;;;;;;5.30;2.70;;;;;;;;;;4928697;29;20125;-77
2021/06/28 03:33:28;;;;;;;4.10;2.33;;;;;;;;;;4927013;28;20076;-77
2021/06/28 03:35:55;;;;;;;4.55;2.85;;;;;;;;;;4944903;28;20086;-78
2021/06/28 03:38:21;;;;;;;4.32;2.17;;;;;;;;;;4924524;28;20071;-77
2021/06/28 03:40:48;;;;;;;4.10;2.35;;;;;;;;;;4937519;28;20059;-77
2021/06/28 03:43:14;;;;;;;5.82;2.45;;;;;;;;;;4944869;29;20083;-77
2021/06/28 03:45:41;;;;;;;5.60;2.65;;;;;;;;;;4930013;29;20051;-77
2021/06/28 03:48:08;;;;;;;4.57;2.50;;;;;;;;;;4923108;28;20467;-77
2021/06/28 03:50:35;;;;;;;3.83;2.60;;;;;;;;;;4928782;28;20060;-78
2021/06/28 03:53:01;;;;;;;6.20;2.85;;;;;;;;;;4929545;28;20074;-78
2021/06/28 03:55:28;;;;;;;5.03;2.40;;;;;;;;;;4929479;28;20050;-78
2021/06/28 03:57:55;;;;;;;4.85;2.65;;;;;;;;;;4930115;28;20063;-78
2021/06/28 04:00:23;;;;;;;7.00;2.65;;;;;;;;;;4924427;28;20091;-78
2021/06/28 04:02:49;;;;;;;4.78;2.45;;;;;;;;;;4928795;28;20929;-78
2021/06/28 04:05:20;;;;;;;5.22;2.38;;;;;;;;;;4928756;28;20064;-79
2021/06/28 04:07:47;;;;;;;4.55;2.33;;;;;;;;;;4931198;28;20051;-77
2021/06/28 04:10:14;;;;;;;3.85;2.00;;;;;;;;;;4929691;28;20040;-80
2021/06/28 04:12:41;;;;;;;4.28;2.30;;;;;;;;;;4930208;28;20103;-79
2021/06/28 04:15:11;;;;;;;5.38;2.25;;;;;;;;;;4927143;29;20111;-77
2021/06/28 04:17:39;;;;;;;2.47;2.00;;;;;;;;;;4923062;29;20059;-79
2021/06/28 04:20:08;;;;;;;6.72;2.40;;;;;;;;;;4930391;28;20066;-78
2021/06/28 04:22:35;;;;;;;6.72;2.10;;;;;;;;;;4929006;28;20535;-78
2021/06/28 04:25:04;;;;;;;4.72;2.15;;;;;;;;;;4928095;29;20134;-78
2021/06/28 04:27:30;;;;;;;3.92;2.00;;;;;;;;;;4940426;28;20060;-78
2021/06/28 04:29:56;;;;;;;5.85;2.17;;;;;;;;;;4929664;29;20063;-77
2021/06/28 04:32:23;;;;;;;4.80;2.30;;;;;;;;;;4929901;28;20591;-78
2021/06/28 04:34:49;;;;;;;4.13;2.45;;;;;;;;;;4928950;29;20059;-76
2021/06/28 04:37:16;;;;;;;4.78;1.90;;;;;;;;;;4921988;29;20072;-79
2021/06/28 04:39:42;;;;;;;7.43;2.53;;;;;;;;;;4928120;28;20044;-78
2021/06/28 04:42:09;;;;;;;4.32;2.00;;;;;;;;;;4943443;29;20059;-79
2021/06/28 04:44:35;;;;;;;5.88;2.00;;;;;;;;;;4930035;29;20076;-78
2021/06/28 04:47:02;;;;;;;7.38;2.65;;;;;;;;;;4945047;29;20059;-76
2021/06/28 04:49:28;;;;;;;5.15;2.28;;;;;;;;;;4926163;28;20067;-77
2021/06/28 04:51:54;;;;;;;3.90;2.20;;;;;;;;;;4927242;29;20071;-78
2021/06/28 04:54:21;;;;;;;5.03;2.20;;;;;;;;;;4943349;29;20063;-78
2021/06/28 04:56:47;;;;;;;4.97;2.30;;;;;;;;;;4930544;28;20067;-78
2021/06/28 04:59:16;;;;;;;5.78;2.05;;;;;;;;;;4927875;29;20457;-78
2021/06/28 05:01:43;;;;;;;4.07;2.10;;;;;;;;;;4929746;29;20524;-77
2021/06/28 05:04:10;;;;;;;3.85;2.28;;;;;;;;;;4928462;29;20079;-78
2021/06/28 05:06:37;;;;;;;6.03;1.90;;;;;;;;;;4929668;28;20106;-78
2021/06/28 05:09:08;;;;;;;6.03;2.20;;;;;;;;;;4925785;29;20104;-79
2021/06/28 05:11:34;;;;;;;;;;;;;;;;;;4944351;28;20064;-78
2021/06/28 05:14:01;;;;;;;5.60;2.08;;;;;;;;;;4926114;28;20001;-75
2021/06/28 05:16:27;;;;;;;2.72;1.33;;;;;;;;;;4929207;28;20067;-75
2021/06/28 05:18:53;;;;;;;3.50;1.55;;;;;;;;;;4929415;28;20134;-75
2021/06/28 05:21:20;;;;;;;2.53;1.42;;;;;;;;;;4924417;28;20067;-76
2021/06/28 05:23:46;;;;;;;4.35;2.22;;;;;;;;;;4942345;28;20044;-75
2021/06/28 05:26:13;;;;;;;4.43;2.00;;;;;;;;;;4930696;28;20548;-75
2021/06/28 05:28:39;;;;;;;4.78;2.17;;;;;;;;;;4927218;28;20502;-76
2021/06/28 05:31:05;;;;;;;5.88;1.73;;;;;;;;;;4929351;28;20142;-75
2021/06/28 05:33:32;;;;;;;4.88;2.10;;;;;;;;;;4928535;28;20048;-76
2021/06/28 05:35:58;;;;;;;9.98;2.10;;;;;;;;;;4924124;28;20040;-76
2021/06/28 05:38:25;;;;;;;6.28;2.00;;;;;;;;;;4928300;28;20664;-74
2021/06/28 05:40:51;;;;;;;7.75;2.15;;;;;;;;;;4927587;28;20071;-75
2021/06/28 05:43:17;;;;;;;4.07;1.80;;;;;;;;;;4926811;28;20075;-76
2021/06/28 05:45:44;;;;;;;4.47;1.80;;;;;;;;;;4928250;28;20059;-74
2021/06/28 05:48:10;;;;;;;3.55;1.75;;;;;;;;;;4923251;28;20067;-75
2021/06/28 05:50:37;;;;;;;6.53;2.03;;;;;;;;;;4926644;28;20070;-75
2021/06/28 05:53:03;;;;;;;3.97;1.60;;;;;;;;;;4928669;28;20514;-74
2021/06/28 05:55:30;;;;;;;4.50;2.33;;;;;;;;;;4925363;28;20064;-75
2021/06/28 05:57:57;;;;;;;4.68;2.13;;;;;;;;;;4927514;29;20547;-75
2021/06/28 06:00:23;;;;;;;4.18;2.10;;;;;;;;;;4927876;28;20063;-74
2021/06/28 06:02:50;;;;;;;6.20;2.15;;;;;;;;;;4929559;29;20087;-75
2021/06/28 06:05:16;;;;;;;11.40;2.30;;;;;;;;;;4928299;28;20075;-76
2021/06/28 06:07:43;;;;;;;9.70;1.98;;;;;;;;;;4929918;28;20051;-75
2021/06/28 06:10:11;;;;;;;6.25;2.20;;;;;;;;;;4928250;29;20056;-74
2021/06/28 06:12:38;;;;;;;5.00;2.10;;;;;;;;;;4925422;28;20124;-75
2021/06/28 06:15:09;;;;;;;3.35;1.70;;;;;;;;;;4941469;28;20080;-74
2021/06/28 06:17:35;;;;;;;;;;;;;;;;;;4930937;29;20059;-74
2021/06/28 06:20:02;;;;;;;3.53;1.80;;;;;;;;;;4934220;28;19954;-75
2021/06/28 06:22:29;;;;;;;3.70;1.80;;;;;;;;;;4930439;28;20091;-74
2021/06/28 06:24:55;;;;;;;3.88;1.60;;;;;;;;;;4930745;28;20586;-75
2021/06/28 06:27:22;;;;;;;4.63;1.85;;;;;;;;;;4928893;28;20059;-75
2021/06/28 06:29:48;;;;;;;3.45;1.83;;;;;;;;;;4929754;28;20620;-77
2021/06/28 06:32:14;;;;;;;4.68;1.85;;;;;;;;;;4933129;28;20059;-77
2021/06/28 06:34:41;;;;;;;4.53;1.90;;;;;;;;;;4933184;28;20127;-75
2021/06/28 06:37:08;;;;;;;3.80;1.85;;;;;;;;;;4930144;29;20628;-73
2021/06/28 06:39:35;;;;;;;4.82;1.80;;;;;;;;;;4931715;29;20086;-74
2021/06/28 06:42:03;;;;;;;4.22;1.90;;;;;;;;;;4944842;28;20130;-74
2021/06/28 06:44:29;;;;;;;3.33;1.70;;;;;;;;;;4930721;28;20063;-75
2021/06/28 06:46:56;;;;;;;3.95;1.88;;;;;;;;;;4928776;28;20063;-76
2021/06/28 06:49:22;;;;;;;4.05;1.70;;;;;;;;;;4928168;28;20070;-75
2021/06/28 06:51:49;;;;;;;6.45;2.22;;;;;;;;;;4931398;28;20499;-75
2021/06/28 06:54:16;;;;;;;3.47;1.63;;;;;;;;;;4932614;28;20480;-75
2021/06/28 06:56:42;;;;;;;2.78;1.80;;;;;;;;;;4931920;29;20500;-75
2021/06/28 06:59:09;;;;;;;3.75;1.80;;;;;;;;;;4930422;28;20440;-75
2021/06/28 07:01:41;;;;;;;3.40;1.50;;;;;;;;;;4944208;28;20036;-75
2021/06/28 07:04:07;;;;;;;2.80;1.60;;;;;;;;;;4932069;29;20098;-75
2021/06/28 07:06:34;;;;;;;3.20;1.90;;;;;;;;;;4930097;28;20071;-75
2021/06/28 07:09:00;;;;;;;3.60;1.70;;;;;;;;;;4930548;28;20079;-75
2021/06/28 07:11:27;;;;;;;4.13;1.77;;;;;;;;;;4930285;28;20416;-74
2021/06/28 07:13:53;;;;;;;3.90;1.90;;;;;;;;;;4930687;28;20118;-75
2021/06/28 07:16:24;;;;;;;3.85;1.70;;;;;;;;;;4929598;28;20063;-76
2021/06/28 07:18:50;;;;;;;4.37;2.10;;;;;;;;;;4931695;28;20040;-75
2021/06/28 07:21:17;;;;;;;6.43;1.90;;;;;;;;;;4929594;29;20478;-76
2021/06/28 07:23:43;;;;;;;3.90;1.73;;;;;;;;;;4930737;28;20060;-75
2021/06/28 07:26:10;;;;;;;4.13;1.80;;;;;;;;;;4929592;28;20055;-75
2021/06/28 07:28:36;;;;;;;3.58;1.60;;;;;;;;;;4926178;28;20495;-75
2021/06/28 07:31:03;;;;;;;3.78;1.75;;;;;;;;;;4946274;28;20070;-74
2021/06/28 07:33:30;;;;;;;3.80;1.92;;;;;;;;;;4931244;28;20503;-76
2021/06/28 07:35:58;;;;;;;3.35;1.70;;;;;;;;;;4930304;29;20421;-75
2021/06/28 07:38:25;;;;;;;4.15;2.08;;;;;;;;;;4927632;28;20512;-76
2021/06/28 07:40:52;;;;;;;3.60;1.80;;;;;;;;;;4928858;28;20099;-75
2021/06/28 07:43:18;;;;;;;4.22;1.83;;;;;;;;;;4931321;28;20044;-76
2021/06/28 07:45:47;;;;;;;2.78;1.60;;;;;;;;;;4927998;28;20051;-73
2021/06/28 07:48:14;;;;;;;3.72;1.63;;;;;;;;;;4928369;28;20511;-77
2021/06/28 07:50:40;;;;;;;3.47;1.80;;;;;;;;;;4928038;28;21309;-75
2021/06/28 07:53:07;;;;;;;3.55;1.88;;;;;;;;;;4928671;28;20160;-74
2021/06/28 07:55:33;;;;;;;4.53;1.80;;;;;;;;;;4927499;28;20040;-74
2021/06/28 07:58:00;;;;;;;2.92;1.60;;;;;;;;;;4930903;29;20039;-74
2021/06/28 08:00:26;;;;;;;2.65;1.70;;;;;;;;;;4931796;28;20056;-73
2021/06/28 08:02:53;;;;;;;3.63;1.90;;;;;;;;;;4929582;29;20189;-76
2021/06/28 08:05:19;;;;;;;4.13;2.15;;;;;;;;;;4931523;28;20126;-74
2021/06/28 08:07:46;;;;;;;4.72;1.90;;;;;;;;;;4931090;28;20039;-76
2021/06/28 08:10:13;;;;;;;4.32;2.38;;;;;;;;;;4930107;28;20075;-74
2021/06/28 08:12:41;;;;;;;2.92;1.80;;;;;;;;;;4929797;28;21412;-74
2021/06/28 08:15:08;;;;;;;4.32;1.90;;;;;;;;;;4929519;29;20570;-75
2021/06/28 08:17:34;;;;;;;4.97;2.05;;;;;;;;;;4933634;28;20932;-75
2021/06/28 08:20:01;;;;;;;4.72;1.90;;;;;;;;;;4930654;28;20067;-75
2021/06/28 08:22:27;;;;;;;2.45;1.15;;;;;;;;;;4934437;28;20129;-75
2021/06/28 08:24:54;;;;;;;2.85;1.30;;;;;;;;;;4934025;28;20158;-74
2021/06/28 08:27:21;;;;;;;3.65;1.60;;;;;;;;;;4933160;28;20067;-76
2021/06/28 08:29:47;;;;;;;7.47;2.75;;;;;;;;;;4927648;29;20067;-74
2021/06/28 08:32:14;;;;;;;5.22;2.53;;;;;;;;;;4924850;29;20059;-75
2021/06/28 08:34:40;;;;;;;6.22;2.25;;;;;;;;;;4928781;29;21522;-75
2021/06/28 08:37:07;;;;;;;4.70;1.88;;;;;;;;;;4929664;28;20066;-74
2021/06/28 08:39:33;;;;;;;4.22;2.45;;;;;;;;;;4929518;28;20051;-75
2021/06/28 08:42:01;;;;;;;3.22;2.58;;;;;;;;;;4928875;29;20071;-75
2021/06/28 08:44:27;;;;;;;3.70;2.22;;;;;;;;;;4920330;28;20456;-75
2021/06/28 08:46:54;;;;;;;5.38;2.60;;;;;;;;;;4944733;28;20067;-75
2021/06/28 08:49:21;;;;;;;5.15;2.60;;;;;;;;;;4927756;29;20468;-77
2021/06/28 08:51:47;;;;;;;5.05;2.60;;;;;;;;;;4934795;29;20090;-75
2021/06/28 08:54:15;;;;;;;4.75;3.00;;;;;;;;;;4934506;28;20085;-75
2021/06/28 08:56:43;;;;;;;9.05;3.08;;;;;;;;;;4928002;28;21212;-76
2021/06/28 08:59:09;;;;;;;5.60;2.65;;;;;;;;;;4929354;28;20059;-76
2021/06/28 09:01:36;;;;;;;5.47;2.55;;;;;;;;;;4926466;28;20055;-76
2021/06/28 09:04:04;;;;;;;6.50;2.88;;;;;;;;;;4931027;29;20052;-75
2021/06/28 09:06:30;;;;;;;6.35;2.67;;;;;;;;;;4929019;28;20138;-75
2021/06/28 09:08:57;;;;;;;6.13;3.38;;;;;;;;;;4929373;29;20072;-76
2021/06/28 09:11:24;;;;;;;6.72;3.47;;;;;;;;;;4926899;28;20055;-76
2021/06/28 09:13:53;;;;;;;7.57;3.67;;;;;;;;;;4928243;28;20066;-75
2021/06/28 09:16:21;;;;;;;4.45;3.28;;;;;;;;;;4926568;28;20044;-75
2021/06/28 09:18:56;;;;;;;8.80;3.53;;;;;;;;;;4931076;28;20578;-76
2021/06/28 09:21:24;;;;;;;7.43;3.45;;;;;;;;;;4928506;28;20086;-76
2021/06/28 09:23:51;;;;;;;8.15;3.47;;;;;;;;;;4929693;28;20122;-75
2021/06/28 09:26:18;;;;;;;7.05;3.45;;;;;;;;;;4941373;28;20063;-76
2021/06/28 09:28:47;;;;;;;6.00;3.53;;;;;;;;;;4928322;29;20067;-74
2021/06/28 09:31:30;;;;;;;6.15;3.13;;;;;;;;;;4931469;29;20063;-75
2021/06/28 09:34:06;;;;;;;6.05;3.60;;;;;;;;;;4924560;28;21217;-76
2021/06/28 09:36:32;;;;;;;6.22;3.50;;;;;;;;;;4929681;28;20071;-77
2021/06/28 09:38:59;;;;;;;8.50;3.63;;;;;;;;;;4928998;28;20373;-75
2021/06/28 09:41:27;;;;;;;4.95;3.10;;;;;;;;;;4925367;28;20103;-76
2021/06/28 09:43:59;;;;;;;7.28;3.17;;;;;;;;;;4929341;28;20550;-76
2021/06/28 09:46:25;;;;;;;6.38;3.58;;;;;;;;;;4944696;28;20071;-76
2021/06/28 09:48:54;;;;;;;5.35;3.22;;;;;;;;;;4928402;28;20039;-76
2021/06/28 09:51:23;;;;;;;5.50;3.28;;;;;;;;;;4929840;28;20111;-76
2021/06/28 09:53:55;;;;;;;7.05;3.50;;;;;;;;;;4934882;28;20118;-75
2021/06/28 09:56:29;;;;;;;5.55;3.10;;;;;;;;;;4934771;28;20063;-77
2021/06/28 09:58:55;;;;;;;4.55;3.00;;;;;;;;;;4930844;29;20059;-75
2021/06/28 10:01:26;;;;;;;6.30;3.47;;;;;;;;;;4931241;29;20067;-75
2021/06/28 10:03:55;;;;;;;4.97;2.63;;;;;;;;;;4931111;28;20063;-75
2021/06/28 10:08:50;;;;;;;6.30;2.72;;;;;;;;;;4932000;29;20071;-75
2021/06/28 10:11:17;;;;;;;4.18;2.50;;;;;;;;;;4932765;28;20146;-75
2021/06/28 10:13:46;;;;;;;4.53;2.00;;;;;;;;;;4931381;28;20526;-76
2021/06/28 10:16:12;;;;;;;5.32;2.58;;;;;;;;;;4930086;29;20441;-74
2021/06/28 10:18:39;;;;;;;4.60;2.38;;;;;;;;;;4933344;28;20060;-75
2021/06/28 10:21:08;;;;;;;3.35;1.90;;;;;;;;;;4931021;29;20035;-75
2021/06/28 10:23:36;;;;;;;4.72;2.10;;;;;;;;;;4932170;28;20535;-76
2021/06/28 10:26:03;;;;;;;6.38;2.45;;;;;;;;;;4932545;29;20062;-76
2021/06/28 10:28:30;;;;;;;4.75;2.30;;;;;;;;;;4931912;28;20122;-74
2021/06/28 10:30:56;;;;;;;3.20;2.08;;;;;;;;;;4934356;28;20114;-76
2021/06/28 10:33:23;;;;;;;2.72;1.77;;;;;;;;;;4933871;28;20040;-76
2021/06/28 10:35:49;;;;;;;3.90;2.25;;;;;;;;;;4936069;29;20471;-76
2021/06/28 10:38:16;;;;;;;4.20;2.30;;;;;;;;;;4932773;28;20138;-76
2021/06/28 10:40:45;;;;;;;4.30;2.10;;;;;;;;;;4933883;28;20051;-76
2021/06/28 10:43:22;;;;;;;4.88;2.28;;;;;;;;;;4933600;28;20487;-75
2021/06/28 10:45:49;;;;;;;5.20;2.20;;;;;;;;;;4931141;28;20059;-75
2021/06/28 10:48:17;;;;;;;6.40;2.03;;;;;;;;;;4930597;28;20654;-76
2021/06/28 10:50:58;;;;;;;5.32;1.98;;;;;;;;;;4928923;29;20048;-76
2021/06/28 10:53:33;;;;;;;4.90;1.92;;;;;;;;;;4928991;29;20059;-77
2021/06/28 10:56:25;;;;;;;6.35;2.65;;;;;;;;;;4943520;28;20122;-76
2021/06/28 10:59:03;;;;;;;7.30;2.22;;;;;;;;;;4927362;28;21282;-76
2021/06/28 11:01:41;;;;;;;4.78;2.10;;;;;;;;;;4928356;28;20575;-76
2021/06/28 11:04:09;;;;;;;6.22;2.20;;;;;;;;;;4930768;28;20067;-78
2021/06/28 11:06:37;;;;;;;5.05;2.15;;;;;;;;;;4943114;29;20056;-78
2021/06/28 11:09:07;;;;;;;5.80;1.92;;;;;;;;;;4930458;28;20074;-77
2021/06/28 11:11:46;;;;;;;4.13;2.07;;;;;;;;;;4930445;28;20059;-82
2021/06/28 11:14:18;;;;;;;5.72;2.25;;;;;;;;;;4932864;28;20517;-78
2021/06/28 11:16:58;;;;;;;5.03;1.80;;;;;;;;;;4935556;28;20805;-79
2021/06/28 11:19:45;;;;;;;4.72;1.73;;;;;;;;;;4933808;29;20040;-78
2021/06/28 11:22:26;;;;;;;3.60;2.05;;;;;;;;;;4946626;28;20063;-78
2021/06/28 11:25:08;;;;;;;4.35;1.98;;;;;;;;;;4932309;28;21625;-79
2021/06/28 11:27:38;;;;;;;6.43;2.00;;;;;;;;;;4933000;28;20078;-78
2021/06/28 11:30:18;;;;;;;4.50;2.15;;;;;;;;;;4932889;28;20087;-79
2021/06/28 11:32:56;;;;;;;3.10;1.80;;;;;;;;;;4931064;28;21359;-78
2021/06/28 11:35:41;;;;;;;2.78;1.50;;;;;;;;;;4926667;28;20067;-79
2021/06/28 11:38:17;;;;;;;4.40;2.05;;;;;;;;;;4927719;28;20087;-75
2021/06/28 11:40:45;;;;;;;3.15;2.00;;;;;;;;;;4931768;28;22170;-75
2021/06/28 11:43:12;;;;;;;4.53;1.98;;;;;;;;;;4928410;28;20051;-76
2021/06/28 11:45:49;;;;;;;4.43;1.80;;;;;;;;;;4930974;28;20068;-75
2021/06/28 11:48:31;;;;;;;3.47;1.65;;;;;;;;;;4927662;28;20389;-77
2021/06/28 11:50:58;;;;;;;5.22;1.83;;;;;;;;;;4929169;28;20507;-77
2021/06/28 11:53:24;;;;;;;7.65;1.75;;;;;;;;;;4936942;28;20071;-79
2021/06/28 11:55:51;;;;;;;7.10;1.90;;;;;;;;;;4929148;28;20511;-76
2021/06/28 11:58:22;;;;;;;3.63;2.10;;;;;;;;;;4930518;29;20083;-75
2021/06/28 12:00:49;;;;;;;4.97;1.70;;;;;;;;;;4928294;29;20067;-75
2021/06/28 12:03:24;;;;;;;3.35;1.80;;;;;;;;;;4925636;29;20400;-77
2021/06/28 12:05:51;;;;;;;4.47;1.80;;;;;;;;;;4920999;29;21273;-77
2021/06/28 12:08:25;;;;;;;3.67;1.90;;;;;;;;;;4921582;29;20063;-79
2021/06/28 12:10:55;;;;;;;4.57;1.85;;;;;;;;;;4926803;28;20095;-76
2021/06/28 12:13:39;;;;;;;7.90;1.70;;;;;;;;;;4926726;28;20055;-75
2021/06/28 12:16:19;;;;;;;5.40;2.20;;;;;;;;;;4929494;28;20118;-75
2021/06/28 12:18:46;;;;;;;4.22;1.77;;;;;;;;;;4929608;28;20583;-74
2021/06/28 12:21:13;;;;;;;3.45;1.50;;;;;;;;;;4930446;28;20114;-75
2021/06/28 12:23:39;;;;;;;3.10;1.70;;;;;;;;;;4930591;28;20487;-75
2021/06/28 12:26:10;;;;;;;4.97;1.80;;;;;;;;;;4930065;29;20047;-75
2021/06/28 12:28:36;;;;;;;5.07;1.50;;;;;;;;;;4928824;28;20071;-76
2021/06/28 12:31:12;;;;;;;2.55;1.60;;;;;;;;;;4930087;29;20291;-76
2021/06/28 12:33:38;;;;;;;3.20;1.80;;;;;;;;;;4924055;28;20125;-75
2021/06/28 12:36:05;;;;;;;3.30;1.58;;;;;;;;;;4930561;29;20558;-75
2021/06/28 12:38:31;;;;;;;2.75;1.63;;;;;;;;;;4922662;28;20056;-76
2021/06/28 12:40:58;;;;;;;4.57;2.15;;;;;;;;;;4945509;28;20122;-77
2021/06/28 12:43:26;;;;;;;2.90;1.60;;;;;;;;;;4931425;28;20036;-75
2021/06/28 12:45:53;;;;;;;2.92;1.65;;;;;;;;;;4928039;29;20138;-74
2021/06/28 12:48:20;;;;;;;3.25;1.60;;;;;;;;;;4930592;28;20040;-75
2021/06/28 12:50:54;;;;;;;3.30;1.70;;;;;;;;;;4931321;28;20063;-75
2021/06/28 12:53:21;;;;;;;4.30;1.88;;;;;;;;;;4928274;29;20078;-75
2021/06/28 12:55:49;;;;;;;2.97;1.45;;;;;;;;;;4928970;29;20514;-75
2021/06/28 12:58:17;;;;;;;2.60;1.42;;;;;;;;;;4929052;28;20067;-76
2021/06/28 13:00:45;;;;;;;2.60;1.50;;;;;;;;;;4930065;28;20032;-75
2021/06/28 13:03:13;;;;;;;2.72;1.45;;;;;;;;;;4921119;29;20063;-75
2021/06/28 13:05:41;;;;;;;3.70;1.52;;;;;;;;;;4922681;29;20085;-74
2021/06/28 13:08:17;;;;;;;4.07;1.20;;;;;;;;;;4927707;28;20062;-77
2021/06/28 13:10:55;;;;;;;2.50;1.10;;;;;;;;;;4928168;28;21365;-76
2021/06/28 13:13:22;;;;;;;3.38;1.40;;;;;;;;;;4921758;28;20122;-76
2021/06/28 13:16:08;;;;;;;2.25;0.90;;;;;;;;;;4930331;28;20032;-75
2021/06/28 13:18:35;;;;;;;2.03;1.20;;;;;;;;;;4929292;28;20036;-75
2021/06/28 13:21:37;;;;;;;2.45;1.15;;;;;;;;;;4926637;28;20061;-75
2021/06/28 13:24:04;;;;;;;2.75;1.20;;;;;;;;;;4925924;28;20788;-76
2021/06/28 13:26:32;;;;;;;1.70;1.00;;;;;;;;;;4934163;28;20059;-78
2021/06/28 13:29:00;;;;;;;3.72;1.35;;;;;;;;;;4926446;28;20063;-75
2021/06/28 13:31:28;;;;;;;1.92;0.93;;;;;;;;;;4934223;28;20127;-75
2021/06/28 13:34:00;;;;;;;1.83;1.05;;;;;;;;;;4933987;29;20035;-76
2021/06/28 13:36:29;;;;;;;2.63;0.95;;;;;;;;;;4936025;28;20043;-75
2021/06/28 13:38:56;;;;;;;2.83;1.00;;;;;;;;;;4931526;28;20060;-76
2021/06/28 13:41:23;;;;;;;2.30;0.80;;;;;;;;;;4926914;28;20523;-77
2021/06/28 13:44:07;;;;;;;2.50;0.93;;;;;;;;;;4930915;29;20087;-75
2021/06/28 13:46:35;;;;;;;3.10;0.95;;;;;;;;;;4923710;28;20337;-75
2021/06/28 13:49:14;;;;;;;3.38;1.00;;;;;;;;;;4934856;28;20134;-76
2021/06/28 13:51:41;;;;;;;2.03;0.80;;;;;;;;;;4930324;28;21098;-75
2021/06/28 13:54:07;;;;;;;6.47;1.15;;;;;;;;;;4929849;29;20067;-74
2021/06/28 13:56:34;;;;;;;2.60;0.80;;;;;;;;;;4945336;28;20557;-73
2021/06/28 13:59:00;;;;;;;4.07;1.10;;;;;;;;;;4932516;28;20114;-74
2021/06/28 14:01:26;;;;;;;2.05;1.10;;;;;;;;;;4930821;28;20063;-74
2021/06/28 14:03:53;;;;;;;1.80;1.08;;;;;;;;;;4931512;28;20487;-74
2021/06/28 14:06:19;;;;;;;3.67;1.45;;;;;;;;;;4945646;28;20043;-74
2021/06/28 14:08:46;;;;;;;2.22;1.00;;;;;;;;;;4928952;29;20059;-74
2021/06/28 14:11:12;;;;;;;2.08;1.00;;;;;;;;;;4932490;29;20089;-73
2021/06/28 14:13:38;;;;;;;3.75;1.13;;;;;;;;;;4930304;28;20728;-74
2021/06/28 14:16:05;;;;;;;2.60;1.00;;;;;;;;;;4931731;28;20126;-74
2021/06/28 14:18:31;;;;;;;1.45;1.00;;;;;;;;;;4930511;28;20523;-74
2021/06/28 14:20:58;;;;;;;1.73;0.80;;;;;;;;;;4933302;28;20063;-81
2021/06/28 14:23:24;;;;;;;2.13;0.90;;;;;;;;;;4947534;28;20114;-79
2021/06/28 14:25:50;;;;;;;5.65;1.38;;;;;;;;;;4932793;29;20032;-82
2021/06/28 14:28:17;;;;;;;4.20;1.05;;;;;;;;;;4932620;28;20070;-81
2021/06/28 14:30:43;;;;;;;2.45;0.70;;;;;;;;;;4938458;28;20039;-86
2021/06/28 14:33:10;;;;;;;2.38;0.70;;;;;;;;;;4937811;29;20046;-84
2021/06/28 14:35:36;;;;;;;3.90;1.08;;;;;;;;;;4936107;28;20051;-80
2021/06/28 14:38:04;;;;;;;1.80;0.95;;;;;;;;;;4936342;28;20036;-80
2021/06/28 14:40:31;;;;;;;2.97;0.70;;;;;;;;;;4933113;28;20453;-79
2021/06/28 14:42:58;;;;;;;1.70;0.70;;;;;;;;;;4932209;29;20504;-78
2021/06/28 14:45:24;;;;;;;3.60;0.70;;;;;;;;;;4903709;29;20063;-77
2021/06/28 14:47:52;;;;;;;1.80;0.90;;;;;;;;;;4934249;28;20519;-78
2021/06/28 14:50:18;;;;;;;1.70;0.70;;;;;;;;;;4930087;29;20079;-77